Latest Weather Observations for Ballarat

IDV60801

Issued at 9:35 pm EST Tuesday 30 September 2014 (issued every 30 minutes, with the page automatically refreshed every 10 minutes)

About weather observations | Map of weather stations | Latest weather observations for VIC | Other Formats
Station Details ID: 089002 Name: BALLARAT AERODROME Lat: -37.51 Lon: 143.79 Height: 435.2 m
Data from the previous 72 hours. | See also: Recent months at Ballarat
Date/Time
EST
Temp
°C
App
Temp
°C
Dew
Point
Rel
Hum
%
Delta-T
°C
Wind Press
QNH
hPa
Press
MSL
hPa
Rain
since 9 am
mm
Dir
 
Spd
km/h
Gust
km/h
Spd
kts
Gust
kts
30/09:30pm 3.5 -0.4 3.2 98 0.1 W 13 19 7 10 1014.9 1015.2 4.2
30/09:00pm 4.2 0.0 3.6 96 0.3 WSW 15 20 8 11 1014.7 1015.0 4.2
30/08:30pm 6.1 -0.8 2.7 79 1.4 W 28 41 15 22 1014.7 1015.0 4.0
30/08:00pm 6.4 1.2 3.4 81 1.3 W 20 30 11 16 1014.0 1014.3 4.0
30/07:30pm 6.4 1.3 3.2 80 1.4 WSW 19 30 10 16 1013.0 1013.3 4.0
30/07:00pm 6.5 1.4 2.8 77 1.6 WSW 19 26 10 14 1012.4 1012.7 4.0
30/06:30pm 7.5 1.4 2.8 72 2.0 WSW 24 35 13 19 1011.8 1012.1 4.0
30/06:00pm 7.9 2.1 4.5 79 1.5 WSW 24 39 13 21 1011.1 1011.3 4.0
30/05:30pm 9.2 0.6 4.8 74 2.0 W 39 57 21 31 1010.5 1010.8 4.0
30/05:07pm 9.1 2.2 6.4 83 1.3 W 32 50 17 27 1010.0 1010.3 4.0
30/05:00pm 8.8 1.6 5.9 82 1.4 W 33 50 18 27 1010.0 1010.3 4.0
30/04:59pm 8.9 1.9 5.8 81 1.4 W 32 50 17 27 1010.0 1010.3 4.0
30/04:30pm 8.2 1.2 5.8 85 1.1 W 32 46 17 25 1009.3 1009.5 4.0
30/04:00pm 7.3 -0.8 7.0 98 0.1 W 39 57 21 31 1009.7 1010.0 4.0
30/03:56pm 7.2 -0.9 6.9 98 0.1 W 39 57 21 31 1009.7 1010.0 4.0
30/03:54pm 7.1 -0.7 6.8 98 0.1 W 37 54 20 29 1009.7 1010.0 4.0
30/03:47pm 7.1 -1.0 6.8 98 0.1 WSW 39 56 21 30 1009.5 1009.7 3.6
30/03:30pm 7.4 -3.1 7.3 99 0.0 WSW 52 70 28 38 1009.1 1009.3 3.6
30/03:28pm 7.5 -3.9 7.4 99 0.0 WSW 57 70 31 38 1009.0 1009.2 3.6
30/03:24pm 8.6 1.2 8.5 99 0.0 W 37 61 20 33 1008.9 1009.1 3.0
30/03:16pm 9.0 2.1 8.9 99 0.1 W 35 50 19 27 1008.5 1008.7 2.2
30/03:00pm 8.9 -0.9 8.8 99 0.1 W 50 72 27 39 1007.7 1008.0 2.0
30/02:48pm 9.7 1.5 9.6 99 0.1 W 43 85 23 46 1007.2 1007.4 0.6
30/02:47pm 10.4 2.7 10.2 99 0.1 W 41 56 22 30 1007.2 1007.4 0.6
30/02:44pm 10.5 3.6 10.3 99 0.1 W 37 56 20 30 1006.8 1007.0 0.6
30/02:37pm 10.8 3.6 10.6 99 0.1 WSW 39 57 21 31 1006.6 1006.8 0.2
30/02:34pm 10.9 3.0 10.7 99 0.1 WSW 43 57 23 31 1006.6 1006.8 0.2
30/02:30pm 11.2 3.4 11.0 99 0.1 WSW 43 57 23 31 1006.5 1006.7 0.2
30/02:24pm 11.1 2.3 10.8 98 0.2 W 48 76 26 41 1006.2 1006.4 0.0
30/02:20pm 11.4 0.5 9.0 85 1.2 W 56 76 30 41 1006.4 1006.6 0.0
30/02:18pm 13.5 1.4 7.9 69 2.8 W 61 76 33 41 1006.2 1006.4 0.0
30/02:00pm 18.2 6.0 5.8 44 6.2 NW 59 82 32 44 1004.4 1004.6 0.0
30/01:30pm 18.7 6.8 5.2 41 6.7 NW 57 76 31 41 1004.4 1004.6 0.0
30/01:03pm 17.4 6.0 6.6 49 5.5 NW 56 74 30 40 1005.2 1005.4 0.0
30/01:00pm 17.2 5.3 5.2 45 5.9 NW 57 74 31 40 1004.8 1005.0 0.0
30/12:35pm 18.1 8.1 6.3 46 6.0 NNW 48 67 26 36 1005.3 1005.5 0.0
30/12:30pm 17.5 6.7 5.8 46 5.8 NNW 52 69 28 37 1005.4 1005.6 0.0
30/12:01pm 17.9 9.5 9.8 59 4.4 NNW 44 63 24 34 1006.3 1006.5 0.0
30/12:00pm 17.8 8.8 8.9 56 4.7 NNW 46 63 25 34 1006.3 1006.5 0.0
30/11:37am 16.2 8.3 7.7 57 4.4 NNW 39 57 21 31 1006.6 1006.8 0.0
30/11:30am 16.1 9.1 8.3 60 4.0 N 35 46 19 25 1006.8 1007.0 0.0
30/11:00am 15.9 7.6 9.3 65 3.5 N 43 56 23 30 1007.6 1007.8 0.0
30/10:30am 14.8 6.7 8.5 66 3.3 NNW 41 48 22 26 1008.0 1008.3 0.0
30/10:00am 14.7 8.0 9.5 71 2.7 N 35 44 19 24 1008.5 1008.7 0.0
30/09:30am 13.9 7.1 9.3 74 2.4 N 35 46 19 25 1009.0 1009.2 0.0
30/09:00am 12.8 5.7 9.4 80 1.8 N 37 44 20 24 1009.3 1009.5 0.0
30/08:30am 11.9 6.5 9.5 85 1.2 N 28 37 15 20 1009.5 1009.7 0.0
30/08:00am 11.2 5.8 9.6 90 0.8 N 28 35 15 19 1009.5 1009.7 0.0
30/07:30am 9.8 4.2 8.6 92 0.6 N 28 37 15 20 1009.8 1010.1 0.0
30/07:00am 8.8 3.9 8.5 98 0.1 N 24 28 13 15 1010.3 1010.6 0.0
30/06:30am 7.7 2.9 7.4 98 0.1 N 22 26 12 14 1010.5 1010.8 0.0
30/06:00am 7.3 3.0 7.0 98 0.1 N 19 22 10 12 1010.4 1010.7 0.0
30/05:30am 7.2 2.9 6.9 98 0.1 N 19 20 10 11 1010.2 1010.5 0.0
30/05:00am 7.3 3.0 7.0 98 0.1 N 19 22 10 12 1010.0 1010.3 0.0
30/04:30am 6.9 2.9 6.6 98 0.1 N 17 19 9 10 1009.6 1009.8 0.0
30/04:00am 6.0 2.9 5.7 98 0.1 N 11 15 6 8 1009.8 1010.1 0.0
30/03:30am 6.1 1.9 5.8 98 0.1 N 17 19 9 10 1010.1 1010.4 0.0
30/03:00am 6.0 2.2 5.7 98 0.1 N 15 17 8 9 1010.3 1010.6 0.0
30/02:30am 7.0 2.9 6.3 95 0.3 N 17 19 9 10 1010.4 1010.7 0.0
30/02:00am 7.5 3.3 5.8 89 0.8 N 17 20 9 11 1010.9 1011.1 0.0
30/01:30am 8.5 4.8 6.1 85 1.1 N 15 19 8 10 1011.2 1011.4 0.0
30/01:00am 8.6 5.6 6.2 85 1.1 NNE 11 15 6 8 1011.4 1011.6 0.0
30/12:30am 8.3 4.9 5.8 84 1.2 N 13 13 7 7 1011.7 1012.0 0.0
30/12:00am 9.0 7.0 6.3 83 1.3 NNE 6 7 3 4 1011.8 1012.1 0.0
 
Date/Time
EST
Temp
°C
App
Temp
°C
Dew
Point
Rel
Hum
%
Delta-T
°C
Wind Press
QNH
hPa
Press
MSL
hPa
Rain
since 9 am
mm
Dir
 
Spd
km/h
Gust
km/h
Spd
kts
Gust
kts
29/11:30pm 10.8 7.6 6.7 76 2.0 NNE 13 17 7 9 1012.1 1012.4 0.0
29/11:00pm 11.2 7.3 7.3 77 1.9 N 17 19 9 10 1012.5 1012.8 0.0
29/10:30pm 10.6 6.4 7.3 80 1.6 N 19 20 10 11 1012.5 1012.8 0.0
29/10:00pm 10.4 6.5 7.1 80 1.6 N 17 19 9 10 1012.6 1012.9 0.0
29/09:30pm 9.9 5.8 6.2 78 1.8 N 17 20 9 11 1012.7 1013.0 0.0
29/09:00pm 10.4 6.0 6.4 76 1.9 N 19 20 10 11 1012.5 1012.8 0.0
29/08:30pm 10.8 6.2 6.6 75 2.0 N 20 22 11 12 1012.6 1012.9 0.0
29/08:00pm 10.9 6.3 6.6 75 2.1 N 20 20 11 11 1012.4 1012.7 0.0
29/07:30pm 12.0 9.4 6.1 67 2.8 NNW 9 11 5 6 1012.2 1012.5 0.0
29/07:00pm 11.3 7.2 6.4 72 2.4 N 17 19 9 10 1012.0 1012.3 0.0
29/06:30pm 11.8 8.2 6.7 71 2.5 N 15 17 8 9 1012.0 1012.3 0.0
29/06:00pm 14.8 10.9 6.9 59 4.0 NNW 17 22 9 12 1011.9 1012.2 0.0
29/05:30pm 16.7 12.3 6.5 51 5.1 NNW 19 22 10 12 1011.8 1012.1 0.0
29/05:00pm 17.5 11.9 7.3 51 5.2 NNW 26 35 14 19 1011.8 1012.1 0.0
29/04:30pm 17.8 12.1 6.7 48 5.6 NNW 26 33 14 18 1011.9 1012.2 0.0
29/04:00pm 18.0 12.1 7.4 50 5.5 NNW 28 37 15 20 1011.9 1012.2 0.0
29/03:31pm 18.3 12.3 8.6 53 5.1 NNW 30 48 16 26 1012.1 1012.4 0.0
29/03:30pm 18.2 11.9 9.0 55 4.9 NNW 32 48 17 26 1012.1 1012.4 0.0
29/03:00pm 17.8 11.3 8.1 53 5.1 NNW 32 39 17 21 1012.3 1012.6 0.0
29/02:30pm 17.8 11.4 8.4 54 4.9 N 32 41 17 22 1012.3 1012.6 0.0
29/02:00pm 17.1 9.8 7.2 52 5.1 N 35 46 19 25 1012.5 1012.8 0.0
29/01:30pm 16.5 9.6 7.4 55 4.6 N 33 41 18 22 1012.7 1013.0 0.0
29/01:00pm 16.6 10.6 8.6 59 4.2 N 30 39 16 21 1012.9 1013.2 0.0
29/12:30pm 15.4 10.4 8.2 62 3.7 N 24 35 13 19 1013.4 1013.6 0.0
29/12:00pm 15.6 10.2 8.1 61 3.9 N 26 35 14 19 1013.7 1014.0 0.0
29/11:30am 15.3 10.9 8.8 65 3.4 N 22 33 12 18 1014.1 1014.4 0.0
29/11:00am 14.3 9.4 8.5 68 3.0 N 24 30 13 16 1014.1 1014.4 0.0
29/10:30am 13.8 8.8 8.0 68 2.9 N 24 33 13 18 1014.2 1014.5 0.0
29/10:00am 12.2 8.0 8.3 77 2.0 N 20 28 11 15 1014.4 1014.7 0.0
29/09:30am 12.7 8.6 8.8 77 2.0 N 20 26 11 14 1014.5 1014.8 0.0
29/09:00am 12.0 8.9 9.0 82 1.5 NW 15 20 8 11 1014.5 1014.8 0.0
29/08:30am 11.0 7.9 8.9 87 1.1 NNW 15 20 8 11 1014.1 1014.4 0.0
29/08:00am 10.7 7.5 8.6 87 1.1 WNW 15 22 8 12 1013.7 1014.0 0.0
29/07:30am 10.3 7.7 7.9 85 1.2 WSW 11 19 6 10 1013.5 1013.7 0.0
29/07:00am 9.6 5.3 8.0 90 0.8 WSW 20 32 11 17 1013.0 1013.3 0.0
29/06:30am 9.0 4.3 7.8 92 0.6 W 22 30 12 16 1012.3 1012.6 0.0
29/06:00am 9.1 6.0 8.8 98 0.2 W 15 24 8 13 1012.1 1012.4 0.0
29/05:30am 9.3 6.2 9.0 98 0.2 W 15 26 8 14 1011.8 1012.1 0.0
29/05:00am 10.0 6.9 8.9 93 0.6 W 15 20 8 11 1011.7 1012.0 0.0
29/04:30am 10.3 6.7 8.2 87 1.0 W 17 26 9 14 1011.1 1011.3 0.0
29/04:00am 10.5 6.7 7.4 81 1.5 W 17 24 9 13 1011.1 1011.3 0.0
29/03:30am 10.3 6.8 7.2 81 1.5 W 15 26 8 14 1011.2 1011.4 0.0
29/03:00am 8.7 6.6 5.8 82 1.4 W 6 9 3 5 1011.6 1011.8 0.0
29/02:30am 8.6 5.7 4.6 76 1.8 W 9 13 5 7 1011.2 1011.4 0.0
29/02:00am 8.7 5.8 4.7 76 1.8 WNW 9 17 5 9 1011.0 1011.2 0.0
29/01:30am 9.7 5.3 4.7 71 2.3 W 17 24 9 13 1010.6 1010.9 0.0
29/01:00am 9.7 5.2 4.1 68 2.5 WNW 17 24 9 13 1010.6 1010.9 0.0
29/12:30am 9.4 6.1 4.4 71 2.3 W 11 19 6 10 1010.4 1010.7 0.0
29/12:00am 9.9 8.1 7.3 84 1.3 WNW 6 9 3 5 1010.0 1010.3 0.0
 
Date/Time
EST
Temp
°C
App
Temp
°C
Dew
Point
Rel
Hum
%
Delta-T
°C
Wind Press
QNH
hPa
Press
MSL
hPa
Rain
since 9 am
mm
Dir
 
Spd
km/h
Gust
km/h
Spd
kts
Gust
kts
28/11:30pm 11.3 10.0 9.9 91 0.7 WSW 7 11 4 6 1009.7 1010.0 0.0
28/11:00pm 11.7 10.9 11.2 97 0.3 SW 6 9 3 5 1009.5 1009.7 0.0
28/10:30pm 11.8 10.5 11.3 97 0.3 SSW 9 11 5 6 1009.1 1009.3 0.0
28/10:00pm 12.1 10.8 11.2 94 0.5 SSW 9 13 5 7 1008.6 1008.8 0.0
28/09:30pm 13.0 11.2 10.9 87 1.1 S 11 15 6 8 1008.4 1008.6 0.0
28/09:00pm 13.9 10.9 10.5 80 1.8 SSW 17 24 9 13 1007.9 1008.2 0.0
28/08:30pm 18.1 13.5 6.6 47 5.8 SW 20 24 11 13 1007.3 1007.5 0.0
28/08:00pm 18.3 13.8 6.2 45 6.1 NNW 19 20 10 11 1006.6 1006.8 0.0
28/07:30pm 20.2 13.8 5.1 37 7.6 NW 28 35 15 19 1006.2 1006.4 0.0
28/07:00pm 20.8 13.9 4.4 34 8.2 N 30 43 16 23 1005.0 1005.2 0.0
28/06:30pm 20.8 14.3 4.8 35 8.0 N 28 35 15 19 1005.0 1005.2 0.0
28/06:00pm 21.0 13.7 4.6 34 8.2 N 32 41 17 22 1004.9 1005.1 0.0
28/05:30pm 22.3 14.0 4.4 31 9.0 N 37 46 20 25 1005.1 1005.3 0.0
28/05:08pm 22.2 13.5 4.3 31 8.9 N 39 57 21 31 1005.1 1005.3 0.0
28/05:00pm 23.1 13.5 3.6 28 9.7 N 43 57 23 31 1005.1 1005.3 0.0
28/04:53pm 22.6 13.5 4.2 30 9.2 N 41 59 22 32 1005.2 1005.4 0.0
28/04:30pm 22.7 13.6 3.8 29 9.4 N 41 52 22 28 1005.2 1005.4 0.0
28/04:01pm 23.9 13.2 2.7 25 10.4 N 48 78 26 42 1005.2 1005.4 0.0
28/04:00pm 23.8 13.6 3.2 26 10.2 N 46 63 25 34 1005.4 1005.6 0.0
28/03:42pm 23.6 12.9 4.5 29 9.7 N 50 69 27 37 1006.0 1006.2 0.0
28/03:30pm 24.0 14.0 4.4 28 9.9 N 46 63 25 34 1005.8 1006.1 0.0
28/03:23pm 23.5 14.1 4.5 29 9.6 N 43 52 23 28 1005.7 1005.9 0.0
28/03:00pm 24.3 10.4 2.5 24 10.7 N 65 87 35 47 1006.0 1006.2 0.0
28/02:46pm 25.0 11.8 2.4 23 11.1 N 61 80 33 43 1006.3 1006.5 0.0
28/02:30pm 25.1 10.8 2.5 23 11.1 N 67 82 36 44 1006.3 1006.5 0.0
28/02:00pm 25.1 10.7 1.9 22 11.3 N 67 87 36 47 1006.8 1007.0 0.0
28/01:30pm 25.0 12.2 4.7 27 10.4 N 61 82 33 44 1007.6 1007.8 0.0
28/01:17pm 24.7 12.8 4.5 27 10.3 N 56 85 30 46 1007.7 1008.0 0.0
28/01:07pm 23.6 14.5 8.5 38 8.2 N 46 65 25 35 1008.0 1008.3 0.0
28/01:00pm 23.2 14.4 9.6 42 7.5 N 46 63 25 34 1008.6 1008.8 0.0
28/12:36pm 21.9 14.0 10.7 49 6.3 N 43 61 23 33 1009.6 1009.8 0.0
28/12:30pm 21.6 13.3 10.1 48 6.4 N 44 59 24 32 1009.8 1010.1 0.0
28/12:08pm 20.6 11.9 10.1 51 5.8 N 46 65 25 35 1010.5 1010.8 0.0
28/12:00pm 20.3 12.3 11.0 55 5.2 N 44 56 24 30 1010.7 1011.0 0.0
28/11:34am 19.7 11.0 10.1 54 5.3 N 46 65 25 35 1010.9 1011.1 0.0
28/11:30am 19.3 10.1 9.5 53 5.3 N 48 65 26 35 1010.1 1010.4 0.0
28/11:00am 18.7 9.3 10.0 57 4.7 N 50 72 27 39 1009.8 1010.1 0.0
28/10:30am 18.2 9.0 9.5 57 4.7 N 48 67 26 36 1010.6 1010.9 0.0
28/10:21am 17.7 8.8 9.1 57 4.6 N 46 67 25 36 1010.5 1010.8 0.0
28/10:00am 17.0 7.8 9.4 61 4.1 NNE 48 65 26 35 1010.7 1011.0 0.0
28/09:31am 16.0 7.6 9.0 63 3.7 NNE 43 61 23 33 1011.8 1012.1 0.0
28/09:30am 15.9 7.4 9.1 64 3.6 NNE 44 61 24 33 1011.8 1012.1 0.0
28/09:00am 15.0 6.4 8.7 66 3.3 N 44 57 24 31 1013.3 1013.5 0.0
28/08:30am 14.3 6.5 8.3 67 3.1 N 39 52 21 28 1013.6 1013.9 0.0
28/08:00am 13.9 5.6 7.9 67 3.0 NNE 41 50 22 27 1013.8 1014.1 0.0
28/07:30am 13.2 6.5 8.1 71 2.6 N 33 44 18 24 1013.9 1014.2 0.0
28/07:00am 12.6 6.0 7.7 72 2.5 NNE 32 44 17 24 1014.0 1014.3 0.0
28/06:30am 12.4 5.6 7.5 72 2.4 NNE 33 43 18 23 1014.0 1014.3 0.0
28/06:00am 12.1 5.8 7.6 74 2.2 NNE 30 37 16 20 1014.0 1014.3 0.0
28/05:30am 12.6 5.8 7.5 71 2.5 NNE 33 43 18 23 1013.9 1014.2 0.0
28/05:00am 12.9 5.7 7.8 71 2.6 NNE 35 44 19 24 1013.8 1014.1 0.0
28/04:30am 13.2 6.4 7.9 70 2.7 NNE 33 44 18 24 1013.9 1014.2 0.0
28/04:00am 13.4 6.3 8.0 70 2.7 NNE 35 43 19 23 1014.1 1014.4 0.0
28/03:30am 13.2 7.1 8.1 71 2.6 NNE 30 44 16 24 1014.4 1014.7 0.0
28/03:00am 13.1 6.5 8.6 74 2.3 NNE 33 43 18 23 1014.9 1015.2 0.0
28/02:30am 13.5 6.5 8.6 72 2.5 NNE 35 48 19 26 1015.1 1015.4 0.0
28/02:00am 13.5 6.6 8.8 73 2.4 NNE 35 50 19 27 1015.5 1015.9 0.0
28/01:30am 13.6 7.3 8.9 73 2.4 NNE 32 41 17 22 1016.0 1016.3 0.0
28/01:00am 14.0 8.1 9.0 72 2.6 NNE 30 41 16 22 1016.4 1016.7 0.0
28/12:30am 13.9 8.4 9.1 73 2.5 NNE 28 39 15 21 1016.7 1017.0 0.0
28/12:00am 14.1 8.6 9.3 73 2.5 NNE 28 39 15 21 1016.9 1017.2 0.0
 
Date/Time
EST
Temp
°C
App
Temp
°C
Dew
Point
Rel
Hum
%
Delta-T
°C
Wind Press
QNH
hPa
Press
MSL
hPa
Rain
since 9 am
mm
Dir
 
Spd
km/h
Gust
km/h
Spd
kts
Gust
kts
27/11:30pm 14.4 8.5 9.2 71 2.7 NNE 30 39 16 21 1017.0 1017.3 0.0
27/11:00pm 14.5 8.6 9.1 70 2.8 NNE 30 39 16 21 1017.1 1017.4 0.0
27/10:30pm 14.3 8.8 9.3 72 2.6 NNE 28 37 15 20 1017.1 1017.4 0.0
27/10:00pm 14.6 9.2 9.4 71 2.7 NNE 28 37 15 20 1017.2 1017.5 0.0

Other Formats:

Comma delimited format used in spreadsheet applications
http://www.bom.gov.au/fwo/IDV60801/IDV60801.94852.axf

JavaScript Object Notation format (JSON) in row-major order
http://www.bom.gov.au/fwo/IDV60801/IDV60801.94852.json